Puerto Limon, Costa Rica

5:26 PM CST on July 12, 2014 (GMT -0600)
Limon International (MRLM) Elev 10 ft | 9.96 °N, 83.02 °W | Change Station

Current weather conditions updated 1 hour ago

Mostly Cloudy
Mostly Cloudy
81 °F
Feels Like 86 °F
N
10
Wind Variable Wind from NNW

Tomorrow is forecast to be nearly the same temperature as today. Thunderstorms.

Today
High -- | Low -- °F
--% Chance of Precip.
Yesterday
High -- | Low -- °F
Precip. -- in
5:17 AM 5:57 PM
Full, 100% visible
Pressure 29.83 in
Visibility 6.2 miles
Clouds Few 1500 ft
Mostly Cloudy 12000 ft
Heat Index 86 °F
Dew Point 75 °F
Humidity 84%
Rainfall 0.00 in
Snow Depth Not available.
UV 2 out of 12
Pollen Not available.
Air Quality Not available.
Flu Activity Not available.
METAR MRLM 122200Z 34009KT 9999 FEW015 BKN120 27/24 A2983

More Conditions Fewer Conditions

Pressure 29.83 in
Visibility 6.2 miles
Clouds Few 1500 ft
Mostly Cloudy 12000 ft
Heat Index 86 °F
Dew Point 75 °F
Humidity 84%
Rainfall 0.00 in
Snow Depth Not available.
UV 2 out of 12
Pollen Not available.
Air Quality Not available.
Flu Activity Not available.
METAR MRLM 122200Z 34009KT 9999 FEW015 BKN120 27/24 A2983

More Conditions Fewer Conditions

10-Day Weather Forecast

Almanac

Astronomy

Jul. 12, 2014 Rise Set
Actual Time 5:17 AM CST 5:57 PM CST
Civil Twilight 4:55 AM CST 6:20 PM CST
Nautical Twilight 4:28 AM CST 6:47 PM CST
Astronomical Twilight 4:01 AM CST 7:14 PM CST
Moon 6:17 PM CST 5:21 AM CST
Length of Visible Light 13h 25m
Length of Day
12h 39m
Tomorrow will be 0m 14s shorter.
Full, 100% of the Moon is Illuminated
Today
Full
Jul 18
Last Quarter
Jul 26
New
Aug 3
First Quarter
Aug 10
Full

Today's Extremes

Country Highs Country Lows

Community

WunderPhotos

Upload Photos

1,733,000 photos uploaded!

Nearby

Snow Depth

Not available.

Earthquake Activity

City Distance Mag. Time & Date
No recent earthquake activity has been reported nearby.
Minimum magnitude displayed is 2.5.

Coastal Water Temperatures

Place Temperature
No Stations Reporting

Nearby Weather Stations

There are no personal weather stations in this area.